Terminal Aerodrome Forecast
Issued by NWS

Home | Current Version | Previous Version | Text Only | Print | Product List | Glossary On
Versions: 1 2 3 4 5 6 7 8 9 10 11 12 13 14 15 16 17
000
FTUS46 KLOX 172300 RRA
TAFLGB
TAF
KLGB 172350Z 1800/1824 29010KT P6SM SCT050 SCT090 OVC140
     FM180300 30005KT P6SM SCT050 BKN090
     FM181500 VRB03KT P6SM VCSH SCT035 BKN070
     FM181700 18006KT P6SM VCSH SCT025 BKN050
     FM182300 29010KT P6SM SCT025 SCT050=

USA.gov is the U.S. government's official web portal to all federal, state and local government web resources and services.